Time;durP1;ratioP1;P1;durP2;ratioP2;P2;SDS_P1;SDS_P2;PMS_P1;PMS_P2;Temp;Humidity;BMP_temperature;BMP_pressure;BME280_temperature;BME280_humidity;BME280_pressure;Samples;Min_cycle;Max_cycle;Signal;HPM_P1;HPM_P2
2022/01/13 00:01:27;;;;;;;4.60;2.92;;;;;;;;;;5014254;28;94127;-61
2022/01/13 00:03:53;;;;;;;3.65;2.88;;;;;;;;;;5013499;28;92568;-61
2022/01/13 00:06:20;;;;;;;4.53;3.40;;;;;;;;;;5023579;28;93179;-60
2022/01/13 00:08:46;;;;;;;3.70;2.95;;;;;;;;;;5030895;27;92802;-61
2022/01/13 00:11:12;;;;;;;3.95;2.85;;;;;;;;;;5020499;27;92486;-61
2022/01/13 00:13:49;;;;;;;3.80;2.90;;;;;;;;;;5016940;27;91971;-61
2022/01/13 00:19:31;;;;;;;3.42;2.65;;;;;;;;;;5011859;28;93339;-61
2022/01/13 00:21:52;;;;;;;3.87;2.87;;;;;;;;;;5003567;28;95726;-61
2022/01/13 00:24:19;;;;;;;2.97;2.55;;;;;;;;;;5024258;28;92457;-61
2022/01/13 00:26:46;;;;;;;3.55;2.75;;;;;;;;;;5028459;27;92530;-61
2022/01/13 00:29:19;;;;;;;3.30;2.47;;;;;;;;;;5025336;28;92419;-60
2022/01/13 00:31:45;;;;;;;2.95;2.70;;;;;;;;;;5018427;28;92353;-61
2022/01/13 00:34:11;;;;;;;3.42;3.13;;;;;;;;;;5025611;28;92911;-61
2022/01/13 00:36:39;;;;;;;3.33;2.45;;;;;;;;;;5012537;28;92526;-61
2022/01/13 00:39:06;;;;;;;3.78;2.78;;;;;;;;;;5017006;28;94218;-61
2022/01/13 00:41:32;;;;;;;3.30;2.92;;;;;;;;;;5014100;28;93470;-61
2022/01/13 00:43:59;;;;;;;3.42;2.80;;;;;;;;;;5020037;28;92383;-60
2022/01/13 00:46:30;;;;;;;3.90;2.97;;;;;;;;;;5022655;28;94820;-61
2022/01/13 00:48:56;;;;;;;3.70;2.90;;;;;;;;;;5012903;28;92914;-61
2022/01/13 00:51:23;;;;;;;5.80;2.97;;;;;;;;;;5012461;28;92531;-61
2022/01/13 00:53:50;;;;;;;3.88;2.78;;;;;;;;;;5018546;28;92405;-61
2022/01/13 00:56:17;;;;;;;4.28;3.00;;;;;;;;;;5034960;27;92654;-61
2022/01/13 00:58:44;;;;;;;3.10;2.80;;;;;;;;;;5011547;27;93205;-61
2022/01/13 01:01:10;;;;;;;3.00;2.70;;;;;;;;;;5011818;28;93189;-60
2022/01/13 01:03:37;;;;;;;3.28;2.90;;;;;;;;;;5013141;27;91816;-61
2022/01/13 01:06:04;;;;;;;4.03;2.90;;;;;;;;;;5013263;28;92374;-61
2022/01/13 01:08:32;;;;;;;3.08;2.67;;;;;;;;;;5020200;28;94150;-61
2022/01/13 01:11:01;;;;;;;3.28;2.97;;;;;;;;;;5010195;28;94839;-61
2022/01/13 01:13:29;;;;;;;3.80;2.80;;;;;;;;;;5014311;28;95553;-61
2022/01/13 01:15:57;;;;;;;4.10;2.80;;;;;;;;;;5011631;28;93470;-61
2022/01/13 01:24:17;;;;;;;3.13;2.78;;;;;;;;;;4989872;28;92456;-61
2022/01/13 01:26:49;;;;;;;3.05;2.47;;;;;;;;;;5014115;28;94317;-60
2022/01/13 01:29:22;;;;;;;;;;;;;;;;;;5010605;28;92706;-60
2022/01/13 01:31:52;;;;;;;3.80;2.80;;;;;;;;;;5014091;28;118654;-60
2022/01/13 01:37:13;;;;;;;2.80;2.55;;;;;;;;;;5010539;28;96837;-61
2022/01/13 01:39:39;;;;;;;3.10;2.80;;;;;;;;;;4996745;28;92415;-61
2022/01/13 01:42:06;;;;;;;3.13;2.80;;;;;;;;;;5014745;28;93999;-60
2022/01/13 01:44:37;;;;;;;3.05;2.67;;;;;;;;;;5011244;28;92359;-61
2022/01/13 01:47:03;;;;;;;2.88;2.67;;;;;;;;;;5010466;28;92495;-60
2022/01/13 01:49:37;;;;;;;3.53;2.80;;;;;;;;;;5011413;28;92478;-61
2022/01/13 01:52:04;;;;;;;3.50;2.70;;;;;;;;;;5012189;28;92884;-61
2022/01/13 01:54:30;;;;;;;3.00;2.50;;;;;;;;;;5013044;28;93931;-61
2022/01/13 01:56:57;;;;;;;3.70;2.80;;;;;;;;;;5013440;27;92467;-61
2022/01/13 01:59:28;;;;;;;3.40;3.10;;;;;;;;;;5016162;28;93967;-61
2022/01/13 02:01:54;;;;;;;3.30;2.53;;;;;;;;;;5013046;28;94862;-61
2022/01/13 02:04:22;;;;;;;3.10;2.80;;;;;;;;;;5014371;28;93415;-60
2022/01/13 02:06:48;;;;;;;2.80;2.50;;;;;;;;;;5043380;27;93080;-61
2022/01/13 02:09:17;;;;;;;2.72;2.53;;;;;;;;;;5028452;28;93251;-61
2022/01/13 02:11:46;;;;;;;2.63;2.42;;;;;;;;;;5028182;27;92428;-61
2022/01/13 02:16:56;;;;;;;2.75;2.50;;;;;;;;;;5013150;27;92931;-61
2022/01/13 02:19:26;;;;;;;2.90;2.40;;;;;;;;;;5012336;28;92186;-61
2022/01/13 02:21:52;;;;;;;2.77;2.40;;;;;;;;;;5018502;28;93100;-61
2022/01/13 02:24:18;;;;;;;3.42;2.72;;;;;;;;;;5014624;28;92477;-59
2022/01/13 02:26:45;;;;;;;2.50;2.30;;;;;;;;;;5019556;28;94926;-61
2022/01/13 02:29:11;;;;;;;3.55;2.30;;;;;;;;;;5017932;27;93278;-61
2022/01/13 02:31:37;;;;;;;3.05;2.50;;;;;;;;;;5024273;28;92355;-61
2022/01/13 02:34:04;;;;;;;2.63;2.42;;;;;;;;;;5001407;28;92880;-61
2022/01/13 02:36:30;;;;;;;3.17;2.38;;;;;;;;;;5021468;28;93087;-61
2022/01/13 02:38:57;;;;;;;2.70;2.50;;;;;;;;;;5014723;28;93127;-61
2022/01/13 02:41:24;;;;;;;2.45;2.25;;;;;;;;;;5014687;28;92883;-61
2022/01/13 02:43:53;;;;;;;3.25;2.28;;;;;;;;;;5014152;28;91715;-61
2022/01/13 02:46:29;;;;;;;2.50;2.28;;;;;;;;;;5017746;28;92368;-61
2022/01/13 02:48:55;;;;;;;2.58;2.38;;;;;;;;;;5018788;28;92644;-61
2022/01/13 02:51:22;;;;;;;2.20;2.00;;;;;;;;;;5015512;28;95293;-61
2022/01/13 02:53:48;;;;;;;2.50;2.30;;;;;;;;;;5019954;27;94253;-61
2022/01/13 02:56:15;;;;;;;2.50;2.30;;;;;;;;;;5014394;28;93459;-61
2022/01/13 02:58:41;;;;;;;2.30;2.10;;;;;;;;;;5016035;28;92502;-61
2022/01/13 03:01:07;;;;;;;2.47;2.28;;;;;;;;;;5015665;28;93081;-60
2022/01/13 03:03:35;;;;;;;2.60;2.40;;;;;;;;;;5022110;28;93626;-61
2022/01/13 03:06:09;;;;;;;2.47;2.20;;;;;;;;;;5014492;28;92330;-61
2022/01/13 03:08:36;;;;;;;2.75;2.30;;;;;;;;;;5016956;28;93241;-61
2022/01/13 03:11:02;;;;;;;2.50;2.30;;;;;;;;;;5018772;28;92476;-61
2022/01/13 03:13:30;;;;;;;2.50;2.28;;;;;;;;;;5022665;28;92782;-61
2022/01/13 03:15:56;;;;;;;2.65;2.25;;;;;;;;;;5017525;27;94797;-61
2022/01/13 03:18:22;;;;;;;2.28;2.08;;;;;;;;;;5011983;28;93903;-60
2022/01/13 03:20:49;;;;;;;2.22;2.00;;;;;;;;;;5013678;28;93198;-61
2022/01/13 03:23:17;;;;;;;2.42;2.22;;;;;;;;;;5013486;28;92379;-61
2022/01/13 03:25:45;;;;;;;2.70;2.50;;;;;;;;;;5013440;28;93174;-61
2022/01/13 03:28:16;;;;;;;2.72;2.50;;;;;;;;;;5012745;28;92575;-61
2022/01/13 03:30:44;;;;;;;2.40;2.20;;;;;;;;;;5016091;28;92521;-61
2022/01/13 03:33:11;;;;;;;2.13;1.95;;;;;;;;;;5013349;28;92484;-61
2022/01/13 03:35:38;;;;;;;2.40;2.17;;;;;;;;;;5026418;28;92403;-61
2022/01/13 03:38:04;;;;;;;2.25;2.15;;;;;;;;;;5017244;28;92552;-61
2022/01/13 03:40:31;;;;;;;2.33;2.13;;;;;;;;;;5026390;27;94781;-61
2022/01/13 03:42:59;;;;;;;2.20;2.00;;;;;;;;;;5012708;28;93451;-61
2022/01/13 03:45:25;;;;;;;2.40;2.20;;;;;;;;;;5012892;28;92506;-60
2022/01/13 03:47:52;;;;;;;1.80;1.70;;;;;;;;;;5014643;28;92902;-61
2022/01/13 03:50:18;;;;;;;2.25;2.05;;;;;;;;;;5028829;28;93258;-61
2022/01/13 03:53:01;;;;;;;2.20;2.00;;;;;;;;;;5016297;28;92928;-61
2022/01/13 03:55:36;;;;;;;2.45;2.25;;;;;;;;;;5013502;28;92403;-61
2022/01/13 03:58:21;;;;;;;1.98;1.83;;;;;;;;;;5016446;28;92346;-61
2022/01/13 04:01:06;;;;;;;2.72;2.53;;;;;;;;;;5010155;28;92429;-61
2022/01/13 04:03:32;;;;;;;2.70;2.50;;;;;;;;;;5021812;27;94060;-61
2022/01/13 04:06:11;;;;;;;2.40;2.20;;;;;;;;;;5004389;28;94785;-61
2022/01/13 04:08:37;;;;;;;2.20;2.08;;;;;;;;;;5017443;28;94210;-61
2022/01/13 04:11:04;;;;;;;2.03;1.92;;;;;;;;;;5012403;28;92569;-61
2022/01/13 04:13:55;;;;;;;2.20;2.00;;;;;;;;;;5017468;28;92434;-61
2022/01/13 04:16:27;;;;;;;2.20;2.00;;;;;;;;;;5025707;28;92843;-61
2022/01/13 04:18:55;;;;;;;2.40;2.10;;;;;;;;;;5014533;27;92405;-61
2022/01/13 04:21:22;;;;;;;2.65;2.17;;;;;;;;;;5012145;28;93287;-60
2022/01/13 04:23:48;;;;;;;2.70;2.42;;;;;;;;;;5014039;27;92651;-61
2022/01/13 04:26:18;;;;;;;2.10;2.00;;;;;;;;;;5026758;27;92359;-61
2022/01/13 04:28:45;;;;;;;1.88;1.77;;;;;;;;;;5015441;28;92410;-61
2022/01/13 04:31:12;;;;;;;2.33;2.13;;;;;;;;;;5021606;28;94865;-61
2022/01/13 04:33:38;;;;;;;2.33;2.13;;;;;;;;;;5017916;27;92429;-61
2022/01/13 04:36:05;;;;;;;2.67;2.13;;;;;;;;;;5012436;28;92340;-61
2022/01/13 04:38:32;;;;;;;2.40;2.20;;;;;;;;;;5020291;28;93074;-61
2022/01/13 04:41:01;;;;;;;2.35;2.15;;;;;;;;;;5011870;28;94496;-61
2022/01/13 04:43:31;;;;;;;1.88;1.73;;;;;;;;;;5008540;28;94716;-61
2022/01/13 04:45:57;;;;;;;2.53;2.33;;;;;;;;;;5014025;27;92454;-61
2022/01/13 04:48:24;;;;;;;2.88;2.00;;;;;;;;;;5014593;28;93137;-61
2022/01/13 04:50:50;;;;;;;1.98;1.85;;;;;;;;;;5012674;28;93463;-60
2022/01/13 04:53:17;;;;;;;2.20;2.00;;;;;;;;;;5017951;27;92510;-61
2022/01/13 04:55:50;;;;;;;2.03;1.92;;;;;;;;;;5010235;28;94822;-61
2022/01/13 04:58:17;;;;;;;2.55;2.15;;;;;;;;;;5015260;28;93256;-61
2022/01/13 05:00:44;;;;;;;1.95;1.85;;;;;;;;;;4996873;28;92855;-61
2022/01/13 05:03:10;;;;;;;2.30;2.10;;;;;;;;;;5011853;28;92949;-61
2022/01/13 05:05:37;;;;;;;1.85;1.75;;;;;;;;;;5012620;28;92478;-61
2022/01/13 05:08:03;;;;;;;2.40;2.20;;;;;;;;;;5015163;28;92362;-61
2022/01/13 05:10:29;;;;;;;1.85;1.75;;;;;;;;;;5012643;28;92526;-61
2022/01/13 05:12:57;;;;;;;1.90;1.80;;;;;;;;;;5025382;27;91769;-61
2022/01/13 05:15:26;;;;;;;2.03;1.85;;;;;;;;;;5012190;28;94138;-61
2022/01/13 05:20:22;;;;;;;2.47;2.03;;;;;;;;;;5017890;28;94869;-59
2022/01/13 05:22:49;;;;;;;6.38;2.42;;;;;;;;;;5011578;28;93319;-61
2022/01/13 05:25:16;;;;;;;2.00;1.80;;;;;;;;;;5012836;27;92465;-61
2022/01/13 05:27:42;;;;;;;2.25;2.05;;;;;;;;;;5031474;27;93752;-61
2022/01/13 05:30:09;;;;;;;2.00;1.90;;;;;;;;;;5025178;28;92567;-60
2022/01/13 05:32:36;;;;;;;2.10;2.00;;;;;;;;;;5031802;27;92508;-61
2022/01/13 05:35:02;;;;;;;2.10;2.00;;;;;;;;;;5012194;27;92791;-61
2022/01/13 05:37:29;;;;;;;1.90;1.80;;;;;;;;;;5011688;28;93256;-61
2022/01/13 05:39:55;;;;;;;2.00;1.90;;;;;;;;;;5021566;28;92442;-60
2022/01/13 05:42:21;;;;;;;1.98;1.88;;;;;;;;;;5014751;28;93087;-60
2022/01/13 05:44:48;;;;;;;2.40;2.20;;;;;;;;;;5017437;28;94850;-61
2022/01/13 05:47:14;;;;;;;2.28;2.08;;;;;;;;;;5027597;27;96541;-61
2022/01/13 05:49:41;;;;;;;2.47;2.22;;;;;;;;;;5024823;28;93262;-61
2022/01/13 05:52:08;;;;;;;2.00;1.90;;;;;;;;;;5016243;27;92457;-61
2022/01/13 05:54:35;;;;;;;2.05;1.95;;;;;;;;;;5011403;28;92408;-61
2022/01/13 05:57:01;;;;;;;2.25;2.05;;;;;;;;;;5012833;28;93457;-61
2022/01/13 05:59:27;;;;;;;2.10;2.00;;;;;;;;;;5018456;28;92451;-61
2022/01/13 06:01:54;;;;;;;2.55;2.35;;;;;;;;;;5017970;28;92775;-60
2022/01/13 06:04:20;;;;;;;2.47;2.28;;;;;;;;;;5023647;27;94459;-61
2022/01/13 06:06:47;;;;;;;2.00;1.90;;;;;;;;;;5017516;28;92898;-61
2022/01/13 06:09:13;;;;;;;2.10;1.90;;;;;;;;;;5027004;27;94754;-61
2022/01/13 06:11:44;;;;;;;2.30;2.10;;;;;;;;;;5023094;27;92496;-61
2022/01/13 06:14:10;;;;;;;2.45;2.25;;;;;;;;;;5012790;28;92965;-61
2022/01/13 06:16:36;;;;;;;2.33;2.13;;;;;;;;;;5015222;28;92490;-60
2022/01/13 06:19:02;;;;;;;1.90;1.80;;;;;;;;;;5011230;28;92547;-61
2022/01/13 06:21:29;;;;;;;2.08;1.92;;;;;;;;;;5019212;27;92558;-60
2022/01/13 06:23:55;;;;;;;2.05;1.95;;;;;;;;;;5020943;28;94491;-61
2022/01/13 06:26:21;;;;;;;2.25;2.00;;;;;;;;;;5018165;28;91730;-61
2022/01/13 06:28:48;;;;;;;2.60;2.00;;;;;;;;;;5013261;28;93198;-60
2022/01/13 06:31:14;;;;;;;2.20;2.00;;;;;;;;;;5013360;28;92393;-61
2022/01/13 06:33:40;;;;;;;2.17;2.00;;;;;;;;;;5007796;28;94822;-61
2022/01/13 06:36:12;;;;;;;2.15;1.95;;;;;;;;;;5013303;28;93439;-59
2022/01/13 06:38:39;;;;;;;1.85;1.75;;;;;;;;;;5014914;28;92781;-61
2022/01/13 06:41:05;;;;;;;2.35;2.15;;;;;;;;;;5014625;28;93118;-61
2022/01/13 06:43:33;;;;;;;2.10;2.00;;;;;;;;;;5014672;28;92370;-61
2022/01/13 06:46:00;;;;;;;2.33;2.13;;;;;;;;;;5014224;28;92386;-61
2022/01/13 06:48:26;;;;;;;2.20;2.08;;;;;;;;;;5016845;28;93703;-61
2022/01/13 06:50:52;;;;;;;2.22;2.13;;;;;;;;;;5014713;28;91635;-61
2022/01/13 06:53:20;;;;;;;2.70;2.50;;;;;;;;;;5014016;28;92727;-61
2022/01/13 06:55:46;;;;;;;2.60;2.40;;;;;;;;;;5014007;27;92570;-61
2022/01/13 06:58:12;;;;;;;2.33;2.22;;;;;;;;;;5018372;27;94868;-61
2022/01/13 07:00:39;;;;;;;2.33;2.20;;;;;;;;;;5001936;28;94272;-61
2022/01/13 07:03:05;;;;;;;2.17;2.08;;;;;;;;;;5013448;28;94582;-61
2022/01/13 07:05:32;;;;;;;2.30;2.10;;;;;;;;;;5013871;28;92456;-61
2022/01/13 07:07:58;;;;;;;2.30;2.10;;;;;;;;;;5016419;28;92493;-61
2022/01/13 07:10:25;;;;;;;2.47;2.30;;;;;;;;;;4993714;28;92604;-61
2022/01/13 07:12:51;;;;;;;2.47;2.28;;;;;;;;;;4994814;28;94118;-62
2022/01/13 07:15:17;;;;;;;2.90;2.63;;;;;;;;;;5015136;28;91700;-62
2022/01/13 07:17:45;;;;;;;4.05;2.42;;;;;;;;;;5014323;28;93006;-62
2022/01/13 07:20:11;;;;;;;2.72;2.50;;;;;;;;;;5013398;28;92906;-62
2022/01/13 07:22:38;;;;;;;3.45;2.80;;;;;;;;;;5011806;28;95927;-62
2022/01/13 07:25:05;;;;;;;3.55;2.80;;;;;;;;;;5014782;28;92409;-63
2022/01/13 07:27:36;;;;;;;3.60;2.70;;;;;;;;;;5013533;28;92345;-63
2022/01/13 07:30:03;;;;;;;3.63;2.80;;;;;;;;;;5017350;28;92544;-63
2022/01/13 07:32:30;;;;;;;3.25;2.80;;;;;;;;;;5033270;28;94202;-63
2022/01/13 07:34:56;;;;;;;4.25;2.67;;;;;;;;;;5028759;28;93998;-63
2022/01/13 07:37:24;;;;;;;3.08;2.78;;;;;;;;;;5012619;28;92391;-63
2022/01/13 07:39:50;;;;;;;3.80;2.65;;;;;;;;;;5013789;28;92943;-63
2022/01/13 07:42:16;;;;;;;6.60;2.80;;;;;;;;;;5006541;28;92542;-63
2022/01/13 07:44:43;;;;;;;3.17;2.70;;;;;;;;;;5010654;28;92426;-63
2022/01/13 07:47:09;;;;;;;5.13;3.10;;;;;;;;;;5011614;28;95222;-63
2022/01/13 07:49:35;;;;;;;2.88;2.67;;;;;;;;;;5013671;28;94447;-63
2022/01/13 07:52:02;;;;;;;3.55;3.08;;;;;;;;;;5016545;28;92434;-62
2022/01/13 07:54:30;;;;;;;3.63;3.22;;;;;;;;;;5013509;28;93284;-62
2022/01/13 07:57:00;;;;;;;4.15;2.90;;;;;;;;;;5013418;28;92602;-62
2022/01/13 07:59:28;;;;;;;5.30;3.10;;;;;;;;;;5012957;28;92344;-63
2022/01/13 08:01:55;;;;;;;4.47;3.22;;;;;;;;;;5012632;28;92961;-62
2022/01/13 08:04:21;;;;;;;3.17;2.75;;;;;;;;;;4993114;28;91612;-62
2022/01/13 08:06:48;;;;;;;3.30;2.80;;;;;;;;;;5008018;28;92295;-62
2022/01/13 08:09:20;;;;;;;2.72;2.53;;;;;;;;;;5009838;28;92446;-62
2022/01/13 08:11:46;;;;;;;4.93;2.88;;;;;;;;;;5011130;28;94989;-64
2022/01/13 08:14:12;;;;;;;6.13;3.40;;;;;;;;;;5015385;28;94037;-63
2022/01/13 08:16:41;;;;;;;5.40;3.20;;;;;;;;;;5008282;28;92572;-64
2022/01/13 08:21:53;;;;;;;13.02;4.07;;;;;;;;;;5013321;28;94495;-63
2022/01/13 08:24:19;;;;;;;10.40;3.80;;;;;;;;;;5013079;28;92836;-64
2022/01/13 08:26:45;;;;;;;15.77;4.78;;;;;;;;;;5023791;28;92377;-62
2022/01/13 08:29:12;;;;;;;23.20;7.75;;;;;;;;;;5030825;27;92275;-62
2022/01/13 08:33:56;;;;;;;49.00;14.30;;;;;;;;;;5056283;27;85656;-68
2022/01/13 08:36:22;;;;;;;70.30;15.40;;;;;;;;;;5044096;27;88962;-68
2022/01/13 08:38:49;;;;;;;86.60;17.48;;;;;;;;;;5031956;27;89641;-68
2022/01/13 08:41:16;;;;;;;49.42;19.27;;;;;;;;;;5031367;27;88625;-67
2022/01/13 08:43:42;;;;;;;53.20;17.73;;;;;;;;;;5029857;27;89930;-68
2022/01/13 08:46:09;;;;;;;96.32;19.20;;;;;;;;;;5016639;28;89913;-68
2022/01/13 08:48:35;;;;;;;74.57;19.13;;;;;;;;;;5031739;27;88939;-68
2022/01/13 08:51:02;;;;;;;49.55;19.40;;;;;;;;;;5032179;27;91008;-67
2022/01/13 08:53:29;;;;;;;64.32;18.27;;;;;;;;;;5034526;27;89377;-67
2022/01/13 08:55:56;;;;;;;50.17;18.08;;;;;;;;;;5030170;28;91185;-67
2022/01/13 08:58:25;;;;;;;54.55;19.25;;;;;;;;;;5030019;28;89277;-67
2022/01/13 09:00:52;;;;;;;55.70;16.92;;;;;;;;;;5030144;27;89333;-67
2022/01/13 09:03:19;;;;;;;50.92;19.27;;;;;;;;;;5027783;28;91275;-67
2022/01/13 09:05:45;;;;;;;51.78;17.75;;;;;;;;;;5029950;27;88975;-67
2022/01/13 09:08:12;;;;;;;57.55;19.50;;;;;;;;;;5029445;27;89256;-67
2022/01/13 09:10:40;;;;;;;62.90;19.77;;;;;;;;;;5024973;27;88944;-67
2022/01/13 09:13:07;;;;;;;79.05;19.52;;;;;;;;;;5029382;28;88812;-67
2022/01/13 09:15:38;;;;;;;52.05;18.77;;;;;;;;;;5033389;27;88951;-67
2022/01/13 09:18:11;;;;;;;62.22;18.48;;;;;;;;;;5031023;27;90577;-67
2022/01/13 09:20:38;;;;;;;70.10;21.88;;;;;;;;;;5030890;27;89017;-67
2022/01/13 09:23:04;;;;;;;118.72;21.63;;;;;;;;;;5030516;27;90219;-66
2022/01/13 09:25:31;;;;;;;54.95;19.00;;;;;;;;;;5012288;28;90657;-66
2022/01/13 09:27:57;;;;;;;64.57;18.60;;;;;;;;;;5022746;28;88820;-68
2022/01/13 09:30:24;;;;;;;100.55;20.10;;;;;;;;;;5024862;27;89118;-68
2022/01/13 09:32:51;;;;;;;60.13;18.23;;;;;;;;;;5014854;28;89217;-67
2022/01/13 09:35:17;;;;;;;90.88;19.95;;;;;;;;;;5029218;27;88845;-67
2022/01/13 09:37:43;;;;;;;44.95;19.13;;;;;;;;;;5048240;27;88944;-67
2022/01/13 09:40:10;;;;;;;78.30;20.35;;;;;;;;;;5030783;27;88885;-67
2022/01/13 09:42:39;;;;;;;55.70;19.58;;;;;;;;;;5030203;27;90064;-67
2022/01/13 09:45:06;;;;;;;56.45;19.73;;;;;;;;;;5015219;27;89674;-67
2022/01/13 09:47:33;;;;;;;60.95;18.45;;;;;;;;;;5016624;28;88837;-66
2022/01/13 09:50:01;;;;;;;66.95;18.40;;;;;;;;;;5016775;28;88917;-68
2022/01/13 09:52:27;;;;;;;66.70;20.60;;;;;;;;;;5014699;28;89348;-68
2022/01/13 09:54:55;;;;;;;59.25;19.88;;;;;;;;;;5017841;28;89468;-68
2022/01/13 09:57:21;;;;;;;53.95;19.55;;;;;;;;;;5014747;28;88937;-68
2022/01/13 09:59:48;;;;;;;78.07;21.08;;;;;;;;;;5019459;28;90505;-68
2022/01/13 10:02:15;;;;;;;62.80;18.90;;;;;;;;;;5008700;28;88939;-68
2022/01/13 10:04:53;;;;;;;46.45;20.05;;;;;;;;;;5016831;28;89230;-68
2022/01/13 10:07:33;;;;;;;48.88;20.30;;;;;;;;;;5017248;28;90444;-67
2022/01/13 10:10:22;;;;;;;70.97;21.00;;;;;;;;;;5016769;28;91347;-67
2022/01/13 10:12:58;;;;;;;79.72;19.92;;;;;;;;;;5015293;28;89234;-68
2022/01/13 10:18:09;;;;;;;65.50;21.65;;;;;;;;;;5010453;28;88948;-68
2022/01/13 10:20:38;;;;;;;60.97;20.95;;;;;;;;;;5012808;28;89590;-69
2022/01/13 10:23:08;;;;;;;58.45;21.52;;;;;;;;;;5019304;28;89723;-69
2022/01/13 10:25:36;;;;;;;80.95;20.13;;;;;;;;;;5016568;28;88920;-69
2022/01/13 10:28:11;;;;;;;68.85;21.33;;;;;;;;;;5016047;28;89149;-68
2022/01/13 10:30:38;;;;;;;63.45;20.83;;;;;;;;;;5015648;28;88926;-68
2022/01/13 10:33:24;;;;;;;60.00;20.30;;;;;;;;;;5015443;28;89607;-69
2022/01/13 10:35:53;;;;;;;58.22;19.85;;;;;;;;;;5015145;28;89036;-68
2022/01/13 10:38:20;;;;;;;58.70;20.70;;;;;;;;;;4996703;28;89914;-68
2022/01/13 10:40:48;;;;;;;59.35;20.80;;;;;;;;;;4997628;28;89271;-68
2022/01/13 10:43:21;;;;;;;55.22;20.20;;;;;;;;;;5012818;28;89131;-68
2022/01/13 10:45:49;;;;;;;60.55;21.52;;;;;;;;;;5019516;28;89347;-69
2022/01/13 10:48:18;;;;;;;57.63;21.35;;;;;;;;;;5014729;28;89006;-68
2022/01/13 10:50:44;;;;;;;51.67;20.35;;;;;;;;;;5016876;28;89825;-68
2022/01/13 10:53:12;;;;;;;59.85;21.08;;;;;;;;;;5016037;28;89163;-68
2022/01/13 10:55:40;;;;;;;48.00;21.00;;;;;;;;;;5014876;28;88916;-68
2022/01/13 10:58:09;;;;;;;44.92;19.90;;;;;;;;;;5015470;28;89831;-68
2022/01/13 11:00:36;;;;;;;48.17;21.60;;;;;;;;;;5015961;28;89429;-69
2022/01/13 11:03:09;;;;;;;52.10;21.02;;;;;;;;;;5010786;28;89195;-69
2022/01/13 11:05:38;;;;;;;48.70;20.52;;;;;;;;;;5016027;28;90210;-68
2022/01/13 11:08:06;;;;;;;34.67;17.20;;;;;;;;;;5011859;28;89101;-68
2022/01/13 11:10:33;;;;;;;44.15;20.33;;;;;;;;;;5016157;28;91274;-69
2022/01/13 11:13:01;;;;;;;50.20;20.58;;;;;;;;;;5015445;28;89682;-70
2022/01/13 11:15:28;;;;;;;40.20;18.98;;;;;;;;;;5014451;28;88892;-69
2022/01/13 11:17:56;;;;;;;42.58;18.52;;;;;;;;;;5014948;28;88956;-69
2022/01/13 11:20:23;;;;;;;39.58;18.35;;;;;;;;;;5016631;28;89326;-69
2022/01/13 11:22:50;;;;;;;45.30;17.95;;;;;;;;;;5016402;28;88985;-67
2022/01/13 11:25:17;;;;;;;53.20;18.65;;;;;;;;;;5014251;28;88945;-67
2022/01/13 11:27:44;;;;;;;46.70;18.27;;;;;;;;;;5017926;28;90319;-68
2022/01/13 11:30:15;;;;;;;47.55;18.20;;;;;;;;;;5015585;28;90592;-68
2022/01/13 11:32:42;;;;;;;43.60;17.52;;;;;;;;;;5009893;28;89727;-67
2022/01/13 11:35:10;;;;;;;46.95;20.05;;;;;;;;;;5013526;28;89113;-69
2022/01/13 11:37:39;;;;;;;53.70;19.70;;;;;;;;;;5014195;28;89504;-68
2022/01/13 11:40:07;;;;;;;48.42;19.40;;;;;;;;;;5012107;28;89136;-68
2022/01/13 11:42:55;;;;;;;63.53;21.08;;;;;;;;;;5015880;28;88886;-68
2022/01/13 11:45:22;;;;;;;51.45;20.63;;;;;;;;;;5015545;28;88914;-68
2022/01/13 11:47:49;;;;;;;58.03;22.08;;;;;;;;;;5014656;28;89159;-69
2022/01/13 11:50:30;;;;;;;49.75;20.08;;;;;;;;;;5017906;28;88995;-68
2022/01/13 11:52:58;;;;;;;55.25;20.73;;;;;;;;;;5004483;28;88927;-68
2022/01/13 11:55:26;;;;;;;72.95;23.20;;;;;;;;;;5015321;28;89215;-68
2022/01/13 11:58:13;;;;;;;52.33;20.10;;;;;;;;;;5012819;28;89044;-67
2022/01/13 12:00:40;;;;;;;51.22;20.65;;;;;;;;;;5010325;28;89709;-67
2022/01/13 12:03:22;;;;;;;55.83;21.83;;;;;;;;;;5002964;28;89428;-67
2022/01/13 12:05:48;;;;;;;69.50;21.63;;;;;;;;;;5030801;28;89344;-68
2022/01/13 12:08:34;;;;;;;55.42;22.85;;;;;;;;;;5014036;28;89368;-67
2022/01/13 12:11:01;;;;;;;72.60;23.15;;;;;;;;;;5013994;28;88946;-69
2022/01/13 12:13:37;;;;;;;58.75;22.98;;;;;;;;;;5004762;28;88910;-68
2022/01/13 12:16:04;;;;;;;55.30;21.35;;;;;;;;;;5004312;28;89139;-70
2022/01/13 12:18:46;;;;;;;53.17;22.45;;;;;;;;;;5014659;28;89414;-67
2022/01/13 12:21:23;;;;;;;62.75;21.55;;;;;;;;;;5015173;28;89074;-68
2022/01/13 12:23:49;;;;;;;50.63;22.13;;;;;;;;;;5015340;28;88932;-68
2022/01/13 12:26:46;;;;;;;56.40;23.05;;;;;;;;;;5010014;28;89695;-68
2022/01/13 12:29:21;;;;;;;65.03;22.20;;;;;;;;;;5009780;28;89229;-68
2022/01/13 12:32:08;;;;;;;50.20;20.88;;;;;;;;;;5011573;28;88937;-67
2022/01/13 12:34:35;;;;;;;47.90;20.77;;;;;;;;;;5008450;28;89348;-69
2022/01/13 12:37:11;;;;;;;52.00;21.42;;;;;;;;;;5017372;28;89715;-69
2022/01/13 12:39:45;;;;;;;50.55;22.08;;;;;;;;;;5009684;28;91137;-70
2022/01/13 12:42:16;;;;;;;54.33;21.58;;;;;;;;;;5008193;28;89318;-68
2022/01/13 12:47:27;;;;;;;48.38;20.00;;;;;;;;;;5014484;28;119457;-68
2022/01/13 12:49:54;;;;;;;51.92;22.30;;;;;;;;;;5012052;28;89475;-68
2022/01/13 12:52:21;;;;;;;56.85;21.73;;;;;;;;;;5010744;28;89271;-67
2022/01/13 12:54:47;;;;;;;50.85;22.02;;;;;;;;;;5009961;28;89573;-68
2022/01/13 12:57:15;;;;;;;56.03;24.15;;;;;;;;;;5013136;28;89607;-68
2022/01/13 12:59:42;;;;;;;60.47;23.20;;;;;;;;;;5013891;28;90257;-68
2022/01/13 13:02:10;;;;;;;57.17;23.23;;;;;;;;;;5012757;28;89409;-68
2022/01/13 13:04:37;;;;;;;67.30;23.30;;;;;;;;;;5011617;28;88974;-68
2022/01/13 13:07:05;;;;;;;53.78;22.80;;;;;;;;;;5013763;28;89143;-68
2022/01/13 13:09:31;;;;;;;58.80;23.30;;;;;;;;;;5011737;28;89292;-68
2022/01/13 13:12:00;;;;;;;49.92;21.80;;;;;;;;;;5004828;28;89110;-69
2022/01/13 13:14:33;;;;;;;60.08;23.20;;;;;;;;;;5011664;28;90024;-68
2022/01/13 13:17:00;;;;;;;56.47;21.45;;;;;;;;;;5013942;28;90641;-68
2022/01/13 13:19:26;;;;;;;53.58;22.40;;;;;;;;;;5017422;28;90542;-68
2022/01/13 13:21:53;;;;;;;53.42;22.70;;;;;;;;;;5016953;28;89670;-69
2022/01/13 13:24:22;;;;;;;59.00;22.73;;;;;;;;;;5017832;28;88861;-71
2022/01/13 13:26:49;;;;;;;52.88;22.10;;;;;;;;;;5017164;28;89188;-71
2022/01/13 13:29:22;;;;;;;71.38;22.65;;;;;;;;;;5016714;28;89629;-67
2022/01/13 13:31:51;;;;;;;62.30;21.30;;;;;;;;;;5015353;28;89762;-70
2022/01/13 13:34:18;;;;;;;49.73;21.97;;;;;;;;;;5017135;28;89987;-69
2022/01/13 13:36:47;;;;;;;47.58;20.40;;;;;;;;;;5004521;28;88824;-69
2022/01/13 13:39:17;;;;;;;46.85;20.02;;;;;;;;;;5000775;28;89117;-68
2022/01/13 13:41:47;;;;;;;46.10;20.15;;;;;;;;;;5014153;28;91180;-68
2022/01/13 13:44:15;;;;;;;42.70;19.33;;;;;;;;;;4996818;28;90580;-68
2022/01/13 13:46:48;;;;;;;50.95;19.42;;;;;;;;;;5012160;28;88986;-68
2022/01/13 13:49:14;;;;;;;47.60;19.50;;;;;;;;;;5015803;28;89748;-69
2022/01/13 13:51:40;;;;;;;45.67;19.45;;;;;;;;;;5016310;28;88549;-68
2022/01/13 13:54:20;;;;;;;46.78;19.20;;;;;;;;;;5014984;28;91120;-68
2022/01/13 13:56:47;;;;;;;40.85;18.70;;;;;;;;;;5010992;28;89433;-68
2022/01/13 13:59:16;;;;;;;37.20;17.85;;;;;;;;;;5014886;28;89122;-68
2022/01/13 14:01:51;;;;;;;40.40;17.88;;;;;;;;;;5016083;28;89860;-67
2022/01/13 14:04:29;;;;;;;38.00;17.48;;;;;;;;;;5019046;28;88694;-68
2022/01/13 14:06:55;;;;;;;44.08;18.08;;;;;;;;;;5015756;28;90101;-68
2022/01/13 14:09:34;;;;;;;47.10;18.55;;;;;;;;;;5014530;28;88955;-69
2022/01/13 14:12:00;;;;;;;41.40;17.73;;;;;;;;;;5016223;28;88838;-70
2022/01/13 14:14:34;;;;;;;41.95;19.23;;;;;;;;;;5015941;28;90107;-68
2022/01/13 14:17:01;;;;;;;48.83;18.67;;;;;;;;;;5016518;28;89531;-68
2022/01/13 14:19:27;;;;;;;46.65;18.15;;;;;;;;;;5016081;28;89512;-69
2022/01/13 14:21:54;;;;;;;48.67;18.67;;;;;;;;;;5016464;28;91261;-68
2022/01/13 14:24:40;;;;;;;51.22;20.33;;;;;;;;;;5016200;28;88991;-69
2022/01/13 14:27:07;;;;;;;40.72;18.60;;;;;;;;;;4999065;28;89044;-68
2022/01/13 14:29:34;;;;;;;51.58;19.90;;;;;;;;;;5004653;28;89645;-69
2022/01/13 14:32:13;;;;;;;41.03;18.25;;;;;;;;;;5005341;28;88924;-69
2022/01/13 14:34:43;;;;;;;46.03;20.05;;;;;;;;;;4996602;28;90096;-68
2022/01/13 14:37:10;;;;;;;47.75;18.95;;;;;;;;;;5015545;28;89655;-68
2022/01/13 14:39:36;;;;;;;42.83;18.55;;;;;;;;;;5012148;28;89518;-68
2022/01/13 14:42:03;;;;;;;44.38;19.63;;;;;;;;;;5015282;28;90036;-67
2022/01/13 14:44:29;;;;;;;45.35;20.05;;;;;;;;;;5015715;28;89530;-68
2022/01/13 14:47:04;;;;;;;44.53;19.92;;;;;;;;;;5013733;28;89408;-70
2022/01/13 14:49:33;;;;;;;44.83;20.25;;;;;;;;;;5008562;28;89019;-68
2022/01/13 14:52:01;;;;;;;48.15;21.00;;;;;;;;;;5015758;28;89194;-69
2022/01/13 14:54:27;;;;;;;43.38;19.25;;;;;;;;;;5015117;28;88857;-68
2022/01/13 14:56:53;;;;;;;41.45;19.60;;;;;;;;;;5015924;28;88792;-71
2022/01/13 14:59:19;;;;;;;53.17;21.13;;;;;;;;;;4996649;28;89354;-69
2022/01/13 15:01:46;;;;;;;50.05;21.73;;;;;;;;;;5001042;28;88692;-69
2022/01/13 15:04:13;;;;;;;44.35;20.70;;;;;;;;;;5008414;28;89170;-68
2022/01/13 15:06:39;;;;;;;47.22;21.85;;;;;;;;;;5015090;28;89486;-68